createdAt,value
2019-06-07T00:00:37.578Z,63.42
2019-06-07T00:01:23.409Z,65.71
2019-06-07T00:02:23.453Z,64.65
2019-06-07T00:03:29.669Z,64.28
2019-06-07T00:04:23.380Z,65.42
2019-06-07T00:05:23.367Z,65.52
2019-06-07T00:06:25.433Z,65.14
2019-06-07T00:07:23.361Z,64.47
2019-06-07T00:08:28.519Z,63.60
2019-06-07T00:09:23.339Z,64.94
2019-06-07T00:10:36.040Z,65.61
2019-06-07T00:11:23.356Z,65.42
2019-06-07T00:12:23.323Z,64.94
2019-06-07T00:13:23.317Z,64.47
2019-06-07T00:14:23.314Z,65.17
2019-06-07T00:15:28.765Z,65.52
2019-06-07T00:16:23.613Z,65.42
2019-06-07T00:17:23.293Z,65.80
2019-06-07T00:18:25.920Z,64.47
2019-06-07T00:19:23.287Z,64.28
2019-06-07T00:20:23.871Z,63.23
2019-06-07T00:22:12.289Z,61.89
2019-06-07T00:22:32.406Z,60.27
2019-06-07T00:23:23.271Z,60.74
2019-06-07T00:24:23.267Z,60.55
2019-06-07T00:25:24.522Z,58.36
2019-06-07T00:26:23.237Z,58.26
2019-06-07T00:27:23.224Z,59.41
2019-06-07T00:28:23.217Z,58.90
2019-06-07T00:29:23.209Z,59.50
2019-06-07T00:30:42.415Z,59.66
2019-06-07T00:31:24.780Z,60.61
2019-06-07T00:32:23.191Z,59.66
2019-06-07T00:33:24.772Z,59.56
2019-06-07T00:34:24.899Z,59.47
2019-06-07T00:35:23.172Z,60.14
2019-06-07T00:36:23.498Z,59.38
2019-06-07T00:37:25.416Z,59.38
2019-06-07T00:38:23.152Z,58.33
2019-06-07T00:39:25.977Z,58.14
2019-06-07T00:40:31.340Z,59.38
2019-06-07T00:41:23.157Z,59.19
2019-06-07T00:42:24.259Z,59.09
2019-06-07T00:43:28.180Z,58.80
2019-06-07T00:44:23.628Z,58.04
2019-06-07T00:45:24.722Z,58.61
2019-06-07T00:46:25.280Z,58.33
2019-06-07T00:47:25.379Z,58.42
2019-06-07T00:48:31.369Z,57.94
2019-06-07T00:49:40.107Z,57.75
2019-06-07T00:50:24.340Z,57.94
2019-06-07T00:51:24.072Z,57.37
2019-06-07T00:53:12.826Z,57.56
2019-06-07T00:53:31.670Z,57.09
2019-06-07T00:54:24.803Z,56.89
2019-06-07T00:55:27.354Z,56.51
2019-06-07T00:56:23.523Z,56.13
2019-06-07T00:57:24.456Z,56.70
2019-06-07T00:58:27.503Z,55.27
2019-06-07T00:59:28.860Z,55.55
2019-06-07T01:00:25.577Z,56.04
2019-06-07T01:01:25.526Z,53.93
2019-06-07T01:02:28.247Z,54.22
2019-06-07T01:03:25.678Z,53.55
2019-06-07T01:04:25.699Z,52.86
2019-06-07T01:05:30.719Z,51.90
2019-06-07T01:06:24.826Z,51.81
2019-06-07T01:07:24.461Z,51.52
2019-06-07T01:08:28.259Z,50.67
2019-06-07T01:09:25.345Z,49.23
2019-06-07T01:10:50.150Z,49.04
2019-06-07T01:11:25.726Z,48.37
2019-06-07T01:12:24.577Z,48.75
2019-06-07T01:13:26.755Z,48.85
2019-06-07T01:14:27.186Z,48.18
2019-06-07T01:15:28.578Z,47.52
2019-06-07T01:16:24.310Z,46.94
2019-06-07T01:17:38.676Z,48.47
2019-06-07T01:18:37.275Z,46.08
2019-06-07T01:19:26.446Z,46.27
2019-06-07T01:20:24.823Z,47.32
2019-06-07T01:21:24.822Z,48.57
2019-06-07T01:22:28.394Z,45.13
2019-06-07T01:23:59.880Z,45.32
2019-06-07T01:24:25.708Z,46.56
2019-06-07T01:25:26.111Z,47.13
2019-06-07T01:26:26.969Z,47.32
2019-06-07T01:27:25.609Z,48.18
2019-06-07T01:28:24.846Z,47.52
2019-06-07T01:29:24.982Z,46.18
2019-06-07T01:30:26.017Z,46.66
2019-06-07T01:31:25.424Z,46.84
2019-06-07T01:32:24.642Z,47.32
2019-06-07T01:33:25.698Z,47.32
2019-06-07T01:34:25.730Z,46.27
2019-06-07T01:35:23.872Z,46.66
2019-06-07T01:36:25.233Z,45.99
2019-06-07T01:37:25.973Z,48.57
2019-06-07T01:38:24.977Z,48.18
2019-06-07T01:39:24.709Z,46.37
2019-06-07T01:40:30.319Z,46.56
2019-06-07T01:41:25.427Z,46.08
2019-06-07T01:42:24.676Z,44.94
2019-06-07T01:43:27.054Z,45.70
2019-06-07T01:44:27.338Z,43.79
2019-06-07T01:45:23.608Z,44.37
2019-06-07T01:46:25.327Z,46.37
2019-06-07T01:47:25.567Z,45.99
2019-06-07T01:48:25.529Z,48.94
2019-06-07T01:49:26.173Z,47.23
2019-06-07T01:50:24.862Z,49.52
2019-06-07T01:51:24.278Z,46.56
2019-06-07T01:52:24.510Z,44.94
2019-06-07T01:53:25.730Z,44.37
2019-06-07T01:54:57.833Z,43.32
2019-06-07T01:55:24.871Z,44.46
2019-06-07T01:56:24.459Z,44.27
2019-06-07T01:57:38.306Z,43.20
2019-06-07T01:58:26.102Z,43.13
2019-06-07T01:59:23.699Z,43.41
2019-06-07T02:00:24.106Z,43.10
2019-06-07T02:01:23.927Z,43.20
2019-06-07T02:02:23.436Z,43.49
2019-06-07T02:03:26.973Z,44.65
2019-06-07T02:04:23.393Z,45.70
2019-06-07T02:05:23.812Z,44.37
2019-06-07T02:06:24.664Z,43.32
2019-06-07T02:07:26.918Z,43.89
2019-06-07T02:08:24.511Z,43.13
2019-06-07T02:09:28.418Z,40.83
2019-06-07T02:10:26.147Z,41.58
2019-06-07T02:11:26.000Z,40.44
2019-06-07T02:12:27.963Z,41.03
2019-06-07T02:13:23.729Z,40.81
2019-06-07T02:14:25.731Z,39.76
2019-06-07T02:15:25.028Z,39.58
2019-06-07T02:16:25.466Z,40.81
2019-06-07T02:17:24.400Z,38.91
2019-06-07T02:18:23.810Z,39.19
2019-06-07T02:19:24.248Z,39.00
2019-06-07T02:20:28.597Z,37.86
2019-06-07T02:21:25.735Z,37.76
2019-06-07T02:22:25.230Z,36.05
2019-06-07T02:23:24.001Z,34.33
2019-06-07T02:24:25.258Z,34.14
2019-06-07T02:25:46.538Z,33.66
2019-06-07T02:26:22.895Z,34.33
2019-06-07T02:27:24.614Z,34.05
2019-06-07T02:28:30.009Z,33.76
2019-06-07T02:29:22.923Z,33.76
2019-06-07T02:30:40.550Z,35.47
2019-06-07T02:31:24.490Z,35.28
2019-06-07T02:32:24.237Z,35.19
2019-06-07T02:33:27.923Z,36.05
2019-06-07T02:34:24.890Z,34.90
2019-06-07T02:35:26.073Z,38.43
2019-06-07T02:36:25.484Z,38.05
2019-06-07T02:37:24.222Z,36.05
2019-06-07T02:38:25.232Z,34.42
2019-06-07T02:39:23.966Z,34.90
2019-06-07T02:40:24.371Z,35.57
2019-06-07T02:41:23.689Z,34.81
2019-06-07T02:42:27.433Z,34.14
2019-06-07T02:43:22.271Z,33.85
2019-06-07T02:44:24.039Z,32.42
2019-06-07T02:45:24.773Z,33.18
2019-06-07T02:46:30.411Z,31.64
2019-06-07T02:47:22.741Z,32.52
2019-06-07T02:48:24.528Z,31.64
2019-06-07T02:49:25.186Z,31.56
2019-06-07T02:50:23.115Z,31.09
2019-06-07T02:51:24.471Z,30.69
2019-06-07T02:52:27.311Z,29.55
2019-06-07T02:53:25.234Z,29.16
2019-06-07T02:54:23.938Z,29.36
2019-06-07T02:55:24.884Z,28.88
2019-06-07T02:56:55.587Z,29.07
2019-06-07T02:57:24.955Z,29.45
2019-06-07T02:58:22.179Z,28.97
2019-06-07T02:59:52.677Z,29.07
2019-06-07T03:00:47.468Z,29.16
2019-06-07T03:01:22.144Z,28.78
2019-06-07T03:02:22.129Z,28.88
2019-06-07T03:03:22.565Z,29.07
2019-06-07T03:04:22.120Z,29.07
2019-06-07T03:05:22.109Z,28.02
2019-06-07T03:06:22.103Z,27.83
2019-06-07T03:07:22.094Z,28.59
2019-06-07T03:08:22.090Z,28.69
2019-06-07T03:09:22.100Z,28.59
2019-06-07T03:10:23.786Z,28.88
2019-06-07T03:11:22.068Z,29.07
2019-06-07T03:12:22.062Z,29.16
2019-06-07T03:13:22.046Z,29.16
2019-06-07T03:14:22.044Z,29.93
2019-06-07T03:15:35.558Z,28.78
2019-06-07T03:16:22.031Z,29.83
2019-06-07T03:17:22.020Z,30.50
2019-06-07T03:18:22.015Z,30.50
2019-06-07T03:19:22.002Z,30.60
2019-06-07T03:20:22.366Z,30.60
2019-06-07T03:21:21.993Z,30.02
2019-06-07T03:22:21.981Z,29.74
2019-06-07T03:23:21.977Z,32.50
2019-06-07T03:24:21.989Z,31.36
2019-06-07T03:25:21.964Z,30.79
2019-06-07T03:26:21.954Z,31.16
2019-06-07T03:27:48.850Z,32.50
2019-06-07T03:28:21.941Z,31.16
2019-06-07T03:29:21.933Z,31.55
2019-06-07T03:30:38.604Z,32.21
2019-06-07T03:31:21.918Z,31.26
2019-06-07T03:32:21.917Z,31.36
2019-06-07T03:33:21.897Z,31.16
2019-06-07T03:34:21.899Z,31.16
2019-06-07T03:35:21.885Z,30.88
2019-06-07T03:36:25.398Z,30.79
2019-06-07T03:37:21.872Z,30.79
2019-06-07T03:38:21.863Z,30.60
2019-06-07T03:39:21.856Z,31.84
2019-06-07T03:40:31.526Z,30.40
2019-06-07T03:41:21.844Z,29.93
2019-06-07T03:42:21.831Z,30.50
2019-06-07T03:43:21.838Z,30.60
2019-06-07T03:44:21.820Z,31.07
2019-06-07T03:45:21.847Z,31.55
2019-06-07T03:46:21.805Z,32.60
2019-06-07T03:47:21.794Z,32.79
2019-06-07T03:48:21.793Z,31.74
2019-06-07T03:49:21.784Z,32.60
2019-06-07T03:50:21.770Z,32.69
2019-06-07T03:51:25.284Z,34.41
2019-06-07T03:52:21.770Z,34.31
2019-06-07T03:53:21.760Z,33.93
2019-06-07T03:54:21.746Z,33.17
2019-06-07T03:55:21.761Z,33.84
2019-06-07T03:56:21.731Z,34.31
2019-06-07T03:57:21.718Z,34.50
2019-06-07T03:58:48.631Z,34.69
2019-06-07T03:59:21.710Z,35.47
2019-06-07T04:00:21.702Z,34.88
2019-06-07T04:01:23.333Z,35.84
2019-06-07T04:02:21.681Z,39.10
2019-06-07T04:03:33.290Z,35.55
2019-06-07T04:04:21.670Z,35.76
2019-06-07T04:05:21.679Z,36.43
2019-06-07T04:06:21.665Z,37.38
2019-06-07T04:07:21.644Z,37.38
2019-06-07T04:08:21.641Z,37.08
2019-06-07T04:09:21.635Z,36.14
2019-06-07T04:10:44.888Z,36.52
2019-06-07T04:11:23.331Z,36.05
2019-06-07T04:12:21.614Z,36.33
2019-06-07T04:13:21.633Z,36.43
2019-06-07T04:14:21.597Z,35.86
2019-06-07T04:15:21.591Z,36.43
2019-06-07T04:16:21.586Z,36.33
2019-06-07T04:17:21.571Z,37.38
2019-06-07T04:18:21.580Z,36.43
2019-06-07T04:19:21.565Z,37.76
2019-06-07T04:20:21.555Z,37.48
2019-06-07T04:21:21.545Z,37.48
2019-06-07T04:22:21.539Z,37.57
2019-06-07T04:23:27.780Z,37.66
2019-06-07T04:24:21.521Z,37.76
2019-06-07T04:25:21.514Z,37.66
2019-06-07T04:26:21.525Z,37.66
2019-06-07T04:27:21.520Z,37.38
2019-06-07T04:28:21.511Z,37.29
2019-06-07T04:30:02.050Z,37.38
2019-06-07T04:30:21.482Z,36.43
2019-06-07T04:31:22.290Z,36.62
2019-06-07T04:32:21.463Z,36.90
2019-06-07T04:33:21.458Z,37.57
2019-06-07T04:34:21.471Z,37.66
2019-06-07T04:35:21.473Z,38.05
2019-06-07T04:36:39.239Z,37.86
2019-06-07T04:37:21.426Z,38.05
2019-06-07T04:38:21.420Z,38.15
2019-06-07T04:39:21.417Z,37.48
2019-06-07T04:40:21.401Z,37.95
2019-06-07T04:41:21.401Z,39.29
2019-06-07T04:42:21.409Z,39.19
2019-06-07T04:43:21.383Z,40.74
2019-06-07T04:44:21.381Z,41.58
2019-06-07T04:45:33.644Z,41.41
2019-06-07T04:46:21.365Z,41.60
2019-06-07T04:47:21.357Z,44.46
2019-06-07T04:48:21.371Z,44.08
2019-06-07T04:49:21.345Z,45.51
2019-06-07T04:50:21.360Z,45.70
2019-06-07T04:51:21.347Z,47.52
2019-06-07T04:52:21.320Z,47.99
2019-06-07T04:53:21.320Z,49.99
2019-06-07T04:54:21.314Z,50.28
2019-06-07T04:55:21.311Z,50.18
2019-06-07T04:56:21.291Z,49.13
2019-06-07T04:57:21.299Z,50.31
2019-06-07T04:58:21.280Z,52.69
2019-06-07T05:00:01.043Z,51.26
2019-06-07T05:00:48.891Z,52.03
2019-06-07T05:01:27.377Z,53.93
2019-06-07T05:02:21.247Z,56.13
2019-06-07T05:03:21.243Z,54.79
2019-06-07T05:04:21.303Z,55.84
2019-06-07T05:05:21.231Z,55.55
2019-06-07T05:06:21.221Z,56.51
2019-06-07T05:07:21.214Z,57.18
2019-06-07T05:08:27.923Z,57.21
2019-06-07T05:09:21.204Z,58.16
2019-06-07T05:10:21.198Z,60.74
2019-06-07T05:11:21.186Z,61.69
2019-06-07T05:12:22.852Z,61.51
2019-06-07T05:13:21.174Z,62.37
2019-06-07T05:14:21.168Z,61.44
2019-06-07T05:15:21.157Z,62.18
2019-06-07T05:16:23.862Z,60.96
2019-06-07T05:17:21.155Z,64.50
2019-06-07T05:18:21.137Z,65.17
2019-06-07T05:19:21.146Z,66.13
2019-06-07T05:20:21.129Z,66.31
2019-06-07T05:21:21.119Z,66.50
2019-06-07T05:22:21.115Z,66.22
2019-06-07T05:24:00.317Z,66.50
2019-06-07T05:24:21.102Z,65.07
2019-06-07T05:25:21.092Z,64.88
2019-06-07T05:26:21.100Z,64.40
2019-06-07T05:27:21.095Z,65.26
2019-06-07T05:28:22.866Z,64.78
2019-06-07T05:29:22.863Z,65.48
2019-06-07T05:30:59.407Z,65.87
2019-06-07T05:31:21.050Z,64.62
2019-06-07T05:32:21.043Z,65.68
2019-06-07T05:33:22.869Z,69.60
2019-06-07T05:34:21.060Z,72.66
2019-06-07T05:35:21.037Z,67.30
2019-06-07T05:36:21.022Z,69.50
2019-06-07T05:37:21.012Z,74.48
2019-06-07T05:38:21.013Z,71.64
2019-06-07T05:39:21.002Z,74.22
2019-06-07T05:40:21.507Z,71.93
2019-06-07T05:41:22.967Z,72.12
2019-06-07T05:42:20.997Z,69.44
2019-06-07T05:43:20.981Z,71.16
2019-06-07T05:44:20.976Z,74.32
2019-06-07T05:45:21.003Z,76.18
2019-06-07T05:46:20.961Z,78.09
2019-06-07T05:47:21.045Z,77.51
2019-06-07T05:48:21.041Z,73.97
2019-06-07T05:49:20.956Z,75.89
2019-06-07T05:50:38.927Z,76.84
2019-06-07T05:51:22.870Z,80.48
2019-06-07T05:52:20.966Z,77.08
2019-06-07T05:53:20.932Z,77.08
2019-06-07T05:54:20.975Z,77.65
2019-06-07T05:55:20.937Z,81.67
2019-06-07T05:56:20.918Z,78.22
2019-06-07T05:57:20.919Z,77.84
2019-06-07T05:58:20.910Z,82.34
2019-06-07T05:59:20.919Z,82.09
2019-06-07T06:00:20.917Z,81.10
2019-06-07T06:01:43.062Z,81.71
2019-06-07T06:02:23.229Z,82.57
2019-06-07T06:03:20.931Z,82.00
2019-06-07T06:04:20.889Z,81.13
2019-06-07T06:05:33.631Z,82.38
2019-06-07T06:06:20.886Z,79.13
2019-06-07T06:07:22.372Z,80.66
2019-06-07T06:08:20.883Z,82.00
2019-06-07T06:09:22.393Z,83.63
2019-06-07T06:10:20.903Z,80.56
2019-06-07T06:11:20.884Z,80.66
2019-06-07T06:12:34.816Z,78.84
2019-06-07T06:13:20.871Z,81.85
2019-06-07T06:14:20.858Z,80.99
2019-06-07T06:15:39.087Z,82.42
2019-06-07T06:16:20.855Z,81.18
2019-06-07T06:17:20.852Z,82.81
2019-06-07T06:18:21.860Z,82.42
2019-06-07T06:19:20.848Z,83.29
2019-06-07T06:20:20.846Z,82.32
2019-06-07T06:21:20.970Z,83.00
2019-06-07T06:22:22.399Z,84.28
2019-06-07T06:23:20.836Z,83.91
2019-06-07T06:24:20.840Z,84.00
2019-06-07T06:25:38.609Z,84.38
2019-06-07T06:26:20.838Z,83.71
2019-06-07T06:28:02.755Z,85.25
2019-06-07T06:28:20.827Z,84.04
2019-06-07T06:29:20.820Z,84.33
2019-06-07T06:30:20.820Z,83.65
2019-06-07T06:31:20.824Z,83.85
2019-06-07T06:33:33.871Z,84.52
2019-06-07T06:34:20.826Z,86.63
2019-06-07T06:35:20.807Z,85.33
2019-06-07T06:36:21.288Z,86.29
2019-06-07T06:37:20.810Z,83.70
2019-06-07T06:38:20.811Z,84.66
2019-06-07T06:39:20.821Z,82.45
2019-06-07T06:40:20.811Z,86.05
2019-06-07T06:41:21.080Z,83.93
2019-06-07T06:42:20.804Z,85.57
2019-06-07T06:43:20.807Z,84.99
2019-06-07T06:44:20.806Z,84.12
2019-06-07T06:45:20.813Z,84.60
2019-06-07T06:46:37.538Z,84.12
2019-06-07T06:47:20.815Z,83.54
2019-06-07T06:48:20.802Z,83.74
2019-06-07T06:49:20.806Z,83.97
2019-06-07T06:50:20.816Z,83.40
2019-06-07T06:51:20.808Z,83.49
2019-06-07T06:52:20.801Z,83.40
2019-06-07T06:53:20.808Z,82.53
2019-06-07T06:54:39.295Z,83.44
2019-06-07T06:55:20.803Z,83.78
2019-06-07T06:56:20.796Z,84.88
2019-06-07T06:57:20.806Z,83.44
2019-06-07T06:58:20.807Z,80.27
2019-06-07T06:59:38.181Z,81.90
2019-06-07T07:00:20.803Z,83.25
2019-06-07T07:01:20.804Z,79.40
2019-06-07T07:02:20.828Z,77.86
2019-06-07T07:03:54.082Z,77.09
2019-06-07T07:04:20.804Z,77.09
2019-06-07T07:05:20.804Z,79.98
2019-06-07T07:06:26.485Z,81.23
2019-06-07T07:07:20.809Z,81.71
2019-06-07T07:08:20.808Z,77.61
2019-06-07T07:09:20.809Z,77.23
2019-06-07T07:10:20.886Z,76.46
2019-06-07T07:11:23.330Z,76.14
2019-06-07T07:12:20.829Z,77.61
2019-06-07T07:13:20.814Z,76.81
2019-06-07T07:14:20.810Z,76.14
2019-06-07T07:15:20.814Z,76.32
2019-06-07T07:16:20.824Z,76.61
2019-06-07T07:17:44.734Z,80.27
2019-06-07T07:18:20.854Z,80.69
2019-06-07T07:19:20.833Z,81.17
2019-06-07T07:20:20.888Z,81.37
2019-06-07T07:21:20.821Z,79.25
2019-06-07T07:22:20.854Z,76.59
2019-06-07T07:23:20.833Z,77.17
2019-06-07T07:24:22.251Z,79.48
2019-06-07T07:25:20.823Z,81.12
2019-06-07T07:26:20.825Z,77.21
2019-06-07T07:27:20.829Z,74.41
2019-06-07T07:28:20.842Z,72.91
2019-06-07T07:29:20.842Z,71.18
2019-06-07T07:30:37.473Z,71.18
2019-06-07T07:31:20.831Z,70.79
2019-06-07T07:32:20.845Z,70.44
2019-06-07T07:33:20.838Z,71.50
2019-06-07T07:34:33.986Z,69.09
2019-06-07T07:35:20.846Z,69.09
2019-06-07T07:36:38.122Z,68.04
2019-06-07T07:37:20.851Z,68.13
2019-06-07T07:38:20.858Z,65.72
2019-06-07T07:39:20.885Z,66.82
2019-06-07T07:40:56.152Z,66.33
2019-06-07T07:41:20.850Z,66.20
2019-06-07T07:42:21.716Z,69.38
2019-06-07T07:43:20.974Z,68.42
2019-06-07T07:44:20.862Z,67.65
2019-06-07T07:45:20.868Z,68.52
2019-06-07T07:46:29.225Z,68.52
2019-06-07T07:47:20.869Z,69.29
2019-06-07T07:48:20.868Z,66.97
2019-06-07T07:49:20.871Z,68.16
2019-06-07T07:50:20.877Z,66.91
2019-06-07T07:51:20.880Z,65.95
2019-06-07T07:52:22.463Z,66.04
2019-06-07T07:53:20.955Z,66.62
2019-06-07T07:54:20.882Z,64.59
2019-06-07T07:55:20.965Z,64.63
2019-06-07T07:56:20.917Z,62.12
2019-06-07T07:57:20.900Z,63.47
2019-06-07T07:58:20.895Z,61.51
2019-06-07T07:59:40.768Z,63.06
2019-06-07T08:00:52.973Z,66.36
2019-06-07T08:01:20.933Z,63.37
2019-06-07T08:02:20.919Z,62.22
2019-06-07T08:03:21.124Z,62.41
2019-06-07T08:04:39.831Z,62.22
2019-06-07T08:05:28.958Z,63.28
2019-06-07T08:06:20.922Z,63.67
2019-06-07T08:07:20.921Z,61.06
2019-06-07T08:08:20.947Z,60.71
2019-06-07T08:09:20.930Z,60.89
2019-06-07T08:10:21.100Z,59.74
2019-06-07T08:11:20.940Z,58.10
2019-06-07T08:12:21.107Z,58.77
2019-06-07T08:13:25.824Z,59.64
2019-06-07T08:14:20.948Z,59.83
2019-06-07T08:15:20.951Z,59.74
2019-06-07T08:16:20.956Z,58.39
2019-06-07T08:17:20.955Z,59.23
2019-06-07T08:18:20.978Z,59.71
2019-06-07T08:19:20.961Z,59.97
2019-06-07T08:20:20.967Z,60.68
2019-06-07T08:21:26.264Z,60.83
2019-06-07T08:22:20.974Z,61.83
2019-06-07T08:23:20.978Z,60.89
2019-06-07T08:24:21.015Z,59.16
2019-06-07T08:25:20.990Z,59.83
2019-06-07T08:26:20.981Z,60.83
2019-06-07T08:27:26.335Z,59.86
2019-06-07T08:28:21.010Z,58.54
2019-06-07T08:29:21.003Z,57.57
2019-06-07T08:30:56.789Z,58.06
2019-06-07T08:31:21.003Z,56.03
2019-06-07T08:32:21.017Z,55.42
2019-06-07T08:33:26.398Z,57.62
2019-06-07T08:34:21.046Z,61.19
2019-06-07T08:36:02.942Z,60.41
2019-06-07T08:36:40.387Z,59.77
2019-06-07T08:37:21.024Z,58.42
2019-06-07T08:38:27.622Z,58.45
2019-06-07T08:39:21.098Z,58.25
2019-06-07T08:40:21.030Z,56.90
2019-06-07T08:41:21.054Z,57.93
2019-06-07T08:42:25.231Z,58.51
2019-06-07T08:43:21.363Z,58.32
2019-06-07T08:44:23.758Z,56.96
2019-06-07T08:45:21.050Z,56.94
2019-06-07T08:46:21.082Z,58.58
2019-06-07T08:47:21.362Z,58.58
2019-06-07T08:48:27.969Z,58.10
2019-06-07T08:49:21.062Z,58.39
2019-06-07T08:50:21.084Z,57.52
2019-06-07T08:51:21.070Z,59.58
2019-06-07T08:52:21.076Z,58.61
2019-06-07T08:53:21.089Z,58.03
2019-06-07T08:54:23.214Z,59.51
2019-06-07T08:55:21.088Z,58.35
2019-06-07T08:56:21.100Z,56.63
2019-06-07T08:57:22.036Z,55.41
2019-06-07T08:58:21.115Z,56.09
2019-06-07T08:59:21.107Z,53.67
2019-06-07T09:01:21.110Z,53.25
2019-06-07T09:02:24.118Z,54.90
2019-06-07T09:03:23.024Z,54.39
2019-06-07T09:04:21.158Z,55.65
2019-06-07T09:05:21.140Z,56.22
2019-06-07T09:07:01.945Z,57.64
2019-06-07T09:07:22.133Z,57.16
2019-06-07T09:08:30.085Z,56.68
2019-06-07T09:09:21.147Z,56.87
2019-06-07T09:10:21.155Z,56.99
2019-06-07T09:11:21.157Z,57.77
2019-06-07T09:12:21.161Z,57.57
2019-06-07T09:13:21.181Z,58.15
2019-06-07T09:14:21.172Z,56.63
2019-06-07T09:15:23.448Z,56.54
2019-06-07T09:16:21.179Z,58.80
2019-06-07T09:17:21.185Z,56.18
2019-06-07T09:18:41.064Z,56.60
2019-06-07T09:19:21.196Z,56.70
2019-06-07T09:20:36.559Z,56.24
2019-06-07T09:21:21.234Z,53.33
2019-06-07T09:22:21.207Z,52.92
2019-06-07T09:23:21.215Z,54.08
2019-06-07T09:24:21.217Z,53.79
2019-06-07T09:25:21.951Z,54.30
2019-06-07T09:26:21.231Z,53.81
2019-06-07T09:27:21.239Z,51.66
2019-06-07T09:28:21.241Z,54.17
2019-06-07T09:29:21.239Z,54.63
2019-06-07T09:30:21.249Z,56.79
2019-06-07T09:31:21.256Z,53.79
2019-06-07T09:32:21.263Z,54.73
2019-06-07T09:33:21.261Z,58.24
2019-06-07T09:34:21.298Z,57.01
2019-06-07T09:35:21.271Z,53.23
2019-06-07T09:36:21.277Z,52.53
2019-06-07T09:38:03.771Z,53.67
2019-06-07T09:38:26.276Z,54.53
2019-06-07T09:39:21.297Z,54.93
2019-06-07T09:40:27.457Z,55.02
2019-06-07T09:41:21.305Z,55.19
2019-06-07T09:42:21.313Z,56.76
2019-06-07T09:44:26.048Z,57.03
2019-06-07T09:45:21.327Z,55.57
2019-06-07T09:46:21.330Z,56.15
2019-06-07T09:47:31.795Z,55.31
2019-06-07T09:49:08.423Z,55.41
2019-06-07T09:49:31.942Z,54.71
2019-06-07T09:50:21.879Z,54.99
2019-06-07T09:51:23.049Z,55.65
2019-06-07T09:52:21.371Z,56.13
2019-06-07T09:53:23.012Z,55.35
2019-06-07T09:55:03.300Z,57.89
2019-06-07T09:55:24.890Z,56.76
2019-06-07T09:56:21.390Z,54.51
2019-06-07T09:57:21.403Z,55.41
2019-06-07T09:59:21.415Z,55.41
2019-06-07T10:00:40.158Z,53.67
2019-06-07T10:01:21.412Z,52.70
2019-06-07T10:02:21.410Z,54.22
2019-06-07T10:03:22.697Z,54.71
2019-06-07T10:04:30.874Z,53.35
2019-06-07T10:05:21.429Z,54.71
2019-06-07T10:06:21.432Z,55.19
2019-06-07T10:07:31.351Z,54.35
2019-06-07T10:09:31.654Z,54.73
2019-06-07T10:11:21.460Z,55.41
2019-06-07T10:12:21.464Z,57.66
2019-06-07T10:13:21.469Z,55.00
2019-06-07T10:14:21.476Z,53.00
2019-06-07T10:15:21.476Z,51.25
2019-06-07T10:16:21.487Z,50.12
2019-06-07T10:17:21.488Z,50.50
2019-06-07T10:18:21.490Z,49.92
2019-06-07T10:19:21.497Z,50.89
2019-06-07T10:20:21.513Z,50.09
2019-06-07T10:21:21.512Z,49.39
2019-06-07T10:22:21.535Z,50.62
2019-06-07T10:23:21.527Z,51.95
2019-06-07T10:24:21.521Z,54.17
2019-06-07T10:25:21.541Z,51.18
2019-06-07T10:26:21.531Z,52.53
2019-06-07T10:27:21.562Z,52.63
2019-06-07T10:28:21.544Z,52.24
2019-06-07T10:29:21.553Z,54.75
2019-06-07T10:30:21.631Z,53.69
2019-06-07T10:31:21.581Z,53.59
2019-06-07T10:32:21.571Z,52.66
2019-06-07T10:33:21.572Z,52.63
2019-06-07T10:34:21.579Z,51.37
2019-06-07T10:35:21.578Z,51.66
2019-06-07T10:36:21.583Z,52.80
2019-06-07T10:37:21.589Z,52.61
2019-06-07T10:38:21.602Z,53.28
2019-06-07T10:39:21.607Z,53.55
2019-06-07T10:40:21.604Z,56.28
2019-06-07T10:41:21.609Z,55.24
2019-06-07T10:42:21.617Z,53.79
2019-06-07T10:43:21.622Z,54.11
2019-06-07T10:44:21.629Z,53.55
2019-06-07T10:45:21.633Z,52.90
2019-06-07T10:46:21.744Z,51.93
2019-06-07T10:47:21.645Z,51.18
2019-06-07T10:48:24.785Z,49.56
2019-06-07T10:49:21.648Z,50.43
2019-06-07T10:50:21.665Z,49.00
2019-06-07T10:51:21.667Z,47.62
2019-06-07T10:52:21.680Z,48.80
2019-06-07T10:53:21.705Z,47.72
2019-06-07T10:54:29.669Z,48.37
2019-06-07T10:55:21.718Z,49.22
2019-06-07T10:56:21.703Z,49.27
2019-06-07T10:57:21.710Z,52.61
2019-06-07T10:58:21.702Z,54.22
2019-06-07T10:59:21.725Z,54.41
2019-06-07T11:00:21.734Z,55.38
2019-06-07T11:01:21.732Z,54.41
2019-06-07T11:02:21.731Z,55.77
2019-06-07T11:03:21.725Z,54.90
2019-06-07T11:04:21.737Z,57.54
2019-06-07T11:05:21.750Z,55.43
2019-06-07T11:06:21.745Z,55.68
2019-06-07T11:07:21.748Z,53.49
2019-06-07T11:08:21.751Z,51.64
2019-06-07T11:09:21.758Z,50.96
2019-06-07T11:10:21.768Z,51.54
2019-06-07T11:11:21.765Z,51.13
2019-06-07T11:12:21.770Z,51.72
2019-06-07T11:13:21.774Z,51.54
2019-06-07T11:14:21.781Z,50.02
2019-06-07T11:15:21.791Z,50.12
2019-06-07T11:16:21.810Z,49.61
2019-06-07T11:17:21.805Z,50.50
2019-06-07T11:18:21.810Z,49.87
2019-06-07T11:19:21.821Z,51.40
2019-06-07T11:20:21.815Z,51.47
2019-06-07T11:21:21.828Z,52.34
2019-06-07T11:22:21.828Z,53.19
2019-06-07T11:23:21.851Z,54.73
2019-06-07T11:24:24.570Z,56.79
2019-06-07T11:25:21.857Z,55.56
2019-06-07T11:26:21.851Z,53.07
2019-06-07T11:27:21.868Z,51.32
2019-06-07T11:28:21.867Z,52.08
2019-06-07T11:29:21.876Z,53.23
2019-06-07T11:30:21.874Z,54.17
2019-06-07T11:31:21.876Z,55.24
2019-06-07T11:32:21.886Z,57.01
2019-06-07T11:33:21.891Z,56.85
2019-06-07T11:34:21.898Z,52.71
2019-06-07T11:35:21.907Z,51.74
2019-06-07T11:36:21.908Z,51.04
2019-06-07T11:37:21.969Z,51.90
2019-06-07T11:38:21.916Z,51.68
2019-06-07T11:39:21.927Z,52.44
2019-06-07T11:40:34.353Z,54.53
2019-06-07T11:41:21.933Z,54.85
2019-06-07T11:42:21.940Z,53.59
2019-06-07T11:43:21.947Z,52.44
2019-06-07T11:44:21.954Z,53.99
2019-06-07T11:45:21.958Z,53.41
2019-06-07T11:46:21.969Z,53.19
2019-06-07T11:47:21.963Z,52.63
2019-06-07T11:48:21.971Z,52.31
2019-06-07T11:49:22.157Z,52.80
2019-06-07T11:50:21.979Z,53.77
2019-06-07T11:51:21.993Z,54.25
2019-06-07T11:52:21.994Z,53.53
2019-06-07T11:53:21.995Z,51.52
2019-06-07T11:54:22.005Z,51.09
2019-06-07T11:55:22.010Z,49.37
2019-06-07T11:56:22.018Z,47.93
2019-06-07T11:57:22.020Z,48.80
2019-06-07T11:58:22.145Z,49.99
2019-06-07T11:59:22.030Z,47.47
2019-06-07T12:00:22.042Z,47.08
2019-06-07T12:01:22.054Z,46.86
2019-06-07T12:02:22.063Z,47.83
2019-06-07T12:03:22.051Z,47.35
2019-06-07T12:04:34.476Z,47.16
2019-06-07T12:05:22.064Z,47.55
2019-06-07T12:06:22.091Z,48.13
2019-06-07T12:07:22.080Z,47.57
2019-06-07T12:08:22.086Z,47.96
2019-06-07T12:09:22.080Z,47.81
2019-06-07T12:10:23.094Z,48.39
2019-06-07T12:11:22.100Z,49.22
2019-06-07T12:12:22.114Z,49.58
2019-06-07T12:13:22.118Z,50.52
2019-06-07T12:14:22.122Z,51.28
2019-06-07T12:15:22.119Z,52.61
2019-06-07T12:16:22.121Z,53.35
2019-06-07T12:17:22.132Z,54.61
2019-06-07T12:18:22.140Z,55.31
2019-06-07T12:19:22.143Z,53.11
2019-06-07T12:20:22.143Z,52.82
2019-06-07T12:21:22.157Z,52.70
2019-06-07T12:22:22.151Z,53.77
2019-06-07T12:23:22.162Z,53.86
2019-06-07T12:24:22.184Z,54.95
2019-06-07T12:25:25.044Z,54.85
2019-06-07T12:26:22.163Z,52.82
2019-06-07T12:27:22.186Z,52.66
2019-06-07T12:28:22.178Z,51.28
2019-06-07T12:29:22.176Z,52.63
2019-06-07T12:30:27.540Z,53.31
2019-06-07T12:31:22.188Z,53.50
2019-06-07T12:32:22.195Z,53.41
2019-06-07T12:33:22.198Z,52.73
2019-06-07T12:34:22.197Z,53.02
2019-06-07T12:35:22.202Z,52.24
2019-06-07T12:36:22.205Z,52.92
2019-06-07T12:37:28.412Z,52.44
2019-06-07T12:38:23.148Z,51.76
2019-06-07T12:39:22.332Z,52.34
2019-06-07T12:40:30.610Z,52.53
2019-06-07T12:41:22.437Z,52.82
2019-06-07T12:42:22.668Z,53.72
2019-06-07T12:43:23.285Z,52.17
2019-06-07T12:44:22.847Z,52.27
2019-06-07T12:45:43.715Z,54.01
2019-06-07T12:46:27.953Z,52.66
2019-06-07T12:47:23.266Z,52.46
2019-06-07T12:48:25.811Z,54.23
2019-06-07T12:49:23.551Z,54.23
2019-06-07T12:50:23.782Z,51.35
2019-06-07T12:51:23.503Z,50.19
2019-06-07T12:52:23.451Z,49.80
2019-06-07T12:53:26.420Z,49.34
2019-06-07T12:54:23.714Z,49.24
2019-06-07T12:55:23.129Z,49.22
2019-06-07T12:56:22.288Z,49.90
2019-06-07T12:57:22.293Z,50.55
2019-06-07T12:58:30.490Z,50.74